sensor_id;sensor_type;location;lat;lon;timestamp;P1;durP1;ratioP1;P2;durP2;ratioP2
59512;SDS011;45330;51.634;5.562;2023-05-07T00:01:42;14.00;;;6.78;;
59512;SDS011;45330;51.634;5.562;2023-05-07T00:04:07;17.38;;;6.93;;
59512;SDS011;45330;51.634;5.562;2023-05-07T00:06:33;15.82;;;6.70;;
59512;SDS011;45330;51.634;5.562;2023-05-07T00:08:58;15.30;;;7.13;;
59512;SDS011;45330;51.634;5.562;2023-05-07T00:11:24;22.90;;;7.38;;
59512;SDS011;45330;51.634;5.562;2023-05-07T00:13:50;15.75;;;7.25;;
59512;SDS011;45330;51.634;5.562;2023-05-07T00:16:16;14.70;;;6.85;;
59512;SDS011;45330;51.634;5.562;2023-05-07T00:18:41;15.88;;;7.00;;
59512;SDS011;45330;51.634;5.562;2023-05-07T00:21:07;18.15;;;7.65;;
59512;SDS011;45330;51.634;5.562;2023-05-07T00:23:32;14.43;;;6.88;;
59512;SDS011;45330;51.634;5.562;2023-05-07T00:25:57;16.73;;;7.30;;
59512;SDS011;45330;51.634;5.562;2023-05-07T00:28:23;17.13;;;7.93;;
59512;SDS011;45330;51.634;5.562;2023-05-07T00:30:48;16.73;;;7.55;;
59512;SDS011;45330;51.634;5.562;2023-05-07T00:33:13;15.02;;;7.47;;
59512;SDS011;45330;51.634;5.562;2023-05-07T00:35:39;14.95;;;7.68;;
59512;SDS011;45330;51.634;5.562;2023-05-07T00:38:04;16.83;;;7.78;;
59512;SDS011;45330;51.634;5.562;2023-05-07T00:40:30;17.27;;;8.00;;
59512;SDS011;45330;51.634;5.562;2023-05-07T00:42:55;14.90;;;7.60;;
59512;SDS011;45330;51.634;5.562;2023-05-07T00:45:24;17.10;;;7.50;;
59512;SDS011;45330;51.634;5.562;2023-05-07T00:47:54;16.67;;;7.90;;
59512;SDS011;45330;51.634;5.562;2023-05-07T00:50:20;17.60;;;7.88;;
59512;SDS011;45330;51.634;5.562;2023-05-07T00:52:46;17.58;;;8.25;;
59512;SDS011;45330;51.634;5.562;2023-05-07T00:55:11;17.98;;;8.15;;
59512;SDS011;45330;51.634;5.562;2023-05-07T00:57:39;17.55;;;8.13;;
59512;SDS011;45330;51.634;5.562;2023-05-07T01:00:06;18.10;;;8.13;;
59512;SDS011;45330;51.634;5.562;2023-05-07T01:02:33;16.30;;;8.50;;
59512;SDS011;45330;51.634;5.562;2023-05-07T01:05:00;17.45;;;8.35;;
59512;SDS011;45330;51.634;5.562;2023-05-07T01:07:26;17.27;;;8.05;;
59512;SDS011;45330;51.634;5.562;2023-05-07T01:09:52;18.10;;;8.90;;
59512;SDS011;45330;51.634;5.562;2023-05-07T01:12:18;17.42;;;8.32;;
59512;SDS011;45330;51.634;5.562;2023-05-07T01:14:44;20.38;;;9.40;;
59512;SDS011;45330;51.634;5.562;2023-05-07T01:17:10;19.30;;;9.18;;
59512;SDS011;45330;51.634;5.562;2023-05-07T01:19:35;18.38;;;9.27;;
59512;SDS011;45330;51.634;5.562;2023-05-07T01:22:02;17.52;;;8.63;;
59512;SDS011;45330;51.634;5.562;2023-05-07T01:24:32;19.13;;;9.27;;
59512;SDS011;45330;51.634;5.562;2023-05-07T01:26:58;19.50;;;9.55;;
59512;SDS011;45330;51.634;5.562;2023-05-07T01:29:23;19.52;;;9.63;;
59512;SDS011;45330;51.634;5.562;2023-05-07T01:31:48;20.13;;;9.77;;
59512;SDS011;45330;51.634;5.562;2023-05-07T01:34:16;18.48;;;9.70;;
59512;SDS011;45330;51.634;5.562;2023-05-07T01:36:43;19.77;;;9.88;;
59512;SDS011;45330;51.634;5.562;2023-05-07T01:39:09;20.50;;;10.55;;
59512;SDS011;45330;51.634;5.562;2023-05-07T01:41:35;21.20;;;10.50;;
59512;SDS011;45330;51.634;5.562;2023-05-07T01:44:01;19.95;;;10.57;;
59512;SDS011;45330;51.634;5.562;2023-05-07T01:46:27;21.60;;;11.05;;
59512;SDS011;45330;51.634;5.562;2023-05-07T01:48:54;19.75;;;10.50;;
59512;SDS011;45330;51.634;5.562;2023-05-07T01:51:20;21.35;;;10.35;;
59512;SDS011;45330;51.634;5.562;2023-05-07T01:53:47;22.52;;;10.82;;
59512;SDS011;45330;51.634;5.562;2023-05-07T01:56:16;22.10;;;11.52;;
59512;SDS011;45330;51.634;5.562;2023-05-07T01:58:42;20.25;;;11.15;;
59512;SDS011;45330;51.634;5.562;2023-05-07T02:01:08;21.55;;;11.13;;
59512;SDS011;45330;51.634;5.562;2023-05-07T02:03:34;21.05;;;11.93;;
59512;SDS011;45330;51.634;5.562;2023-05-07T02:05:59;19.13;;;11.38;;
59512;SDS011;45330;51.634;5.562;2023-05-07T02:08:24;20.45;;;11.18;;
59512;SDS011;45330;51.634;5.562;2023-05-07T02:10:50;20.20;;;11.48;;
59512;SDS011;45330;51.634;5.562;2023-05-07T02:13:16;22.80;;;12.02;;
59512;SDS011;45330;51.634;5.562;2023-05-07T02:15:41;21.15;;;12.85;;
59512;SDS011;45330;51.634;5.562;2023-05-07T02:18:08;23.98;;;13.40;;
59512;SDS011;45330;51.634;5.562;2023-05-07T02:20:34;23.48;;;13.77;;
59512;SDS011;45330;51.634;5.562;2023-05-07T02:23:00;23.35;;;13.95;;
59512;SDS011;45330;51.634;5.562;2023-05-07T02:25:25;23.17;;;14.20;;
59512;SDS011;45330;51.634;5.562;2023-05-07T02:27:51;22.88;;;14.57;;
59512;SDS011;45330;51.634;5.562;2023-05-07T02:30:16;24.23;;;14.38;;
59512;SDS011;45330;51.634;5.562;2023-05-07T02:32:42;23.05;;;14.13;;
59512;SDS011;45330;51.634;5.562;2023-05-07T02:35:07;23.73;;;14.48;;
59512;SDS011;45330;51.634;5.562;2023-05-07T02:37:33;24.10;;;14.82;;
59512;SDS011;45330;51.634;5.562;2023-05-07T02:39:58;22.80;;;14.73;;
59512;SDS011;45330;51.634;5.562;2023-05-07T02:42:23;25.25;;;15.10;;
59512;SDS011;45330;51.634;5.562;2023-05-07T02:44:49;24.30;;;15.23;;
59512;SDS011;45330;51.634;5.562;2023-05-07T02:47:14;23.95;;;15.18;;
59512;SDS011;45330;51.634;5.562;2023-05-07T02:49:40;24.02;;;15.57;;
59512;SDS011;45330;51.634;5.562;2023-05-07T02:52:06;23.85;;;15.95;;
59512;SDS011;45330;51.634;5.562;2023-05-07T02:54:31;24.50;;;15.85;;
59512;SDS011;45330;51.634;5.562;2023-05-07T02:56:57;24.08;;;15.77;;
59512;SDS011;45330;51.634;5.562;2023-05-07T02:59:23;24.42;;;15.90;;
59512;SDS011;45330;51.634;5.562;2023-05-07T03:01:48;24.98;;;16.67;;
59512;SDS011;45330;51.634;5.562;2023-05-07T03:04:14;23.55;;;16.00;;
59512;SDS011;45330;51.634;5.562;2023-05-07T03:06:39;24.77;;;17.02;;
59512;SDS011;45330;51.634;5.562;2023-05-07T03:09:05;25.65;;;16.48;;
59512;SDS011;45330;51.634;5.562;2023-05-07T03:11:30;24.35;;;15.80;;
59512;SDS011;45330;51.634;5.562;2023-05-07T03:13:55;24.48;;;15.85;;
59512;SDS011;45330;51.634;5.562;2023-05-07T03:16:21;25.08;;;16.67;;
59512;SDS011;45330;51.634;5.562;2023-05-07T03:18:46;25.70;;;16.45;;
59512;SDS011;45330;51.634;5.562;2023-05-07T03:21:11;25.05;;;17.77;;
59512;SDS011;45330;51.634;5.562;2023-05-07T03:23:37;25.98;;;17.15;;
59512;SDS011;45330;51.634;5.562;2023-05-07T03:26:02;25.83;;;17.58;;
59512;SDS011;45330;51.634;5.562;2023-05-07T03:28:28;27.27;;;17.40;;
59512;SDS011;45330;51.634;5.562;2023-05-07T03:30:53;26.10;;;18.05;;
59512;SDS011;45330;51.634;5.562;2023-05-07T03:33:18;25.95;;;18.08;;
59512;SDS011;45330;51.634;5.562;2023-05-07T03:35:44;26.42;;;18.25;;
59512;SDS011;45330;51.634;5.562;2023-05-07T03:38:09;26.48;;;18.08;;
59512;SDS011;45330;51.634;5.562;2023-05-07T03:40:35;25.08;;;17.65;;
59512;SDS011;45330;51.634;5.562;2023-05-07T03:43:00;26.08;;;17.83;;
59512;SDS011;45330;51.634;5.562;2023-05-07T03:45:26;26.33;;;18.83;;
59512;SDS011;45330;51.634;5.562;2023-05-07T03:47:51;27.02;;;18.83;;
59512;SDS011;45330;51.634;5.562;2023-05-07T03:50:16;28.15;;;19.58;;
59512;SDS011;45330;51.634;5.562;2023-05-07T03:52:42;25.23;;;18.27;;
59512;SDS011;45330;51.634;5.562;2023-05-07T03:55:07;26.02;;;18.92;;
59512;SDS011;45330;51.634;5.562;2023-05-07T03:57:33;27.73;;;19.45;;
59512;SDS011;45330;51.634;5.562;2023-05-07T03:59:58;26.63;;;19.80;;
59512;SDS011;45330;51.634;5.562;2023-05-07T04:02:24;27.10;;;20.13;;
59512;SDS011;45330;51.634;5.562;2023-05-07T04:04:49;29.77;;;21.23;;
59512;SDS011;45330;51.634;5.562;2023-05-07T04:07:15;28.65;;;21.88;;
59512;SDS011;45330;51.634;5.562;2023-05-07T04:09:40;27.90;;;21.42;;
59512;SDS011;45330;51.634;5.562;2023-05-07T04:12:06;29.73;;;21.67;;
59512;SDS011;45330;51.634;5.562;2023-05-07T04:14:31;30.98;;;22.52;;
59512;SDS011;45330;51.634;5.562;2023-05-07T04:16:57;31.00;;;23.88;;
59512;SDS011;45330;51.634;5.562;2023-05-07T04:19:24;30.27;;;23.40;;
59512;SDS011;45330;51.634;5.562;2023-05-07T04:21:50;31.70;;;24.30;;
59512;SDS011;45330;51.634;5.562;2023-05-07T04:24:15;30.00;;;23.65;;
59512;SDS011;45330;51.634;5.562;2023-05-07T04:26:42;34.92;;;25.10;;
59512;SDS011;45330;51.634;5.562;2023-05-07T04:29:07;32.90;;;26.55;;
59512;SDS011;45330;51.634;5.562;2023-05-07T04:31:32;31.90;;;25.45;;
59512;SDS011;45330;51.634;5.562;2023-05-07T04:33:58;33.25;;;25.88;;
59512;SDS011;45330;51.634;5.562;2023-05-07T04:36:23;33.15;;;26.58;;
59512;SDS011;45330;51.634;5.562;2023-05-07T04:38:52;33.00;;;26.55;;
59512;SDS011;45330;51.634;5.562;2023-05-07T04:41:18;35.47;;;28.13;;
59512;SDS011;45330;51.634;5.562;2023-05-07T04:43:43;35.03;;;27.77;;
59512;SDS011;45330;51.634;5.562;2023-05-07T04:46:09;34.65;;;27.38;;
59512;SDS011;45330;51.634;5.562;2023-05-07T04:48:34;35.05;;;28.27;;
59512;SDS011;45330;51.634;5.562;2023-05-07T04:50:59;34.78;;;27.63;;
59512;SDS011;45330;51.634;5.562;2023-05-07T04:53:25;35.28;;;27.55;;
59512;SDS011;45330;51.634;5.562;2023-05-07T04:55:56;35.83;;;28.67;;
59512;SDS011;45330;51.634;5.562;2023-05-07T04:58:22;35.38;;;28.23;;
59512;SDS011;45330;51.634;5.562;2023-05-07T05:00:48;36.15;;;28.00;;
59512;SDS011;45330;51.634;5.562;2023-05-07T05:03:14;35.03;;;28.95;;
59512;SDS011;45330;51.634;5.562;2023-05-07T05:05:40;36.45;;;29.67;;
59512;SDS011;45330;51.634;5.562;2023-05-07T05:08:05;35.05;;;29.42;;
59512;SDS011;45330;51.634;5.562;2023-05-07T05:10:31;36.25;;;30.05;;
59512;SDS011;45330;51.634;5.562;2023-05-07T05:12:56;35.25;;;28.67;;
59512;SDS011;45330;51.634;5.562;2023-05-07T05:15:21;34.47;;;29.83;;
59512;SDS011;45330;51.634;5.562;2023-05-07T05:17:47;33.28;;;28.63;;
59512;SDS011;45330;51.634;5.562;2023-05-07T05:20:12;33.60;;;28.05;;
59512;SDS011;45330;51.634;5.562;2023-05-07T05:22:38;34.00;;;27.50;;
59512;SDS011;45330;51.634;5.562;2023-05-07T05:25:04;33.90;;;27.63;;
59512;SDS011;45330;51.634;5.562;2023-05-07T05:27:29;34.05;;;28.83;;
59512;SDS011;45330;51.634;5.562;2023-05-07T05:29:55;33.90;;;27.58;;
59512;SDS011;45330;51.634;5.562;2023-05-07T05:32:20;33.90;;;29.13;;
59512;SDS011;45330;51.634;5.562;2023-05-07T05:34:46;33.90;;;27.55;;
59512;SDS011;45330;51.634;5.562;2023-05-07T05:37:11;35.13;;;28.23;;
59512;SDS011;45330;51.634;5.562;2023-05-07T05:39:36;34.08;;;28.60;;
59512;SDS011;45330;51.634;5.562;2023-05-07T05:42:02;32.78;;;26.73;;
59512;SDS011;45330;51.634;5.562;2023-05-07T05:44:27;32.63;;;26.17;;
59512;SDS011;45330;51.634;5.562;2023-05-07T05:46:53;33.00;;;26.77;;
59512;SDS011;45330;51.634;5.562;2023-05-07T05:49:20;30.75;;;25.73;;
59512;SDS011;45330;51.634;5.562;2023-05-07T05:51:46;31.55;;;26.30;;
59512;SDS011;45330;51.634;5.562;2023-05-07T05:54:11;31.70;;;25.33;;
59512;SDS011;45330;51.634;5.562;2023-05-07T05:56:37;30.63;;;26.52;;
59512;SDS011;45330;51.634;5.562;2023-05-07T05:59:02;32.35;;;26.38;;
59512;SDS011;45330;51.634;5.562;2023-05-07T06:01:28;31.25;;;26.73;;
59512;SDS011;45330;51.634;5.562;2023-05-07T06:03:53;31.60;;;26.40;;
59512;SDS011;45330;51.634;5.562;2023-05-07T06:06:19;32.05;;;26.10;;
59512;SDS011;45330;51.634;5.562;2023-05-07T06:08:44;31.63;;;26.15;;
59512;SDS011;45330;51.634;5.562;2023-05-07T06:11:10;30.88;;;25.02;;
59512;SDS011;45330;51.634;5.562;2023-05-07T06:13:35;31.42;;;25.25;;
59512;SDS011;45330;51.634;5.562;2023-05-07T06:16:00;30.08;;;25.35;;
59512;SDS011;45330;51.634;5.562;2023-05-07T06:18:26;30.40;;;24.02;;
59512;SDS011;45330;51.634;5.562;2023-05-07T06:20:51;27.75;;;22.00;;
59512;SDS011;45330;51.634;5.562;2023-05-07T06:23:17;28.27;;;23.00;;
59512;SDS011;45330;51.634;5.562;2023-05-07T06:25:47;28.90;;;22.88;;
59512;SDS011;45330;51.634;5.562;2023-05-07T06:28:16;29.08;;;22.27;;
59512;SDS011;45330;51.634;5.562;2023-05-07T06:30:42;27.48;;;21.58;;
59512;SDS011;45330;51.634;5.562;2023-05-07T06:33:07;28.00;;;22.15;;
59512;SDS011;45330;51.634;5.562;2023-05-07T06:35:32;27.60;;;21.58;;
59512;SDS011;45330;51.634;5.562;2023-05-07T06:37:58;27.70;;;20.73;;
59512;SDS011;45330;51.634;5.562;2023-05-07T06:40:23;26.92;;;19.83;;
59512;SDS011;45330;51.634;5.562;2023-05-07T06:42:48;28.40;;;21.58;;
59512;SDS011;45330;51.634;5.562;2023-05-07T06:45:14;26.98;;;20.25;;
59512;SDS011;45330;51.634;5.562;2023-05-07T06:47:39;26.58;;;20.60;;
59512;SDS011;45330;51.634;5.562;2023-05-07T06:50:05;27.83;;;20.88;;
59512;SDS011;45330;51.634;5.562;2023-05-07T06:52:31;27.02;;;19.98;;
59512;SDS011;45330;51.634;5.562;2023-05-07T06:54:56;26.95;;;19.92;;
59512;SDS011;45330;51.634;5.562;2023-05-07T06:57:22;26.67;;;19.92;;
59512;SDS011;45330;51.634;5.562;2023-05-07T06:59:47;25.67;;;19.58;;
59512;SDS011;45330;51.634;5.562;2023-05-07T07:02:12;27.02;;;19.92;;
59512;SDS011;45330;51.634;5.562;2023-05-07T07:04:38;26.38;;;20.25;;
59512;SDS011;45330;51.634;5.562;2023-05-07T07:07:03;26.83;;;19.23;;
59512;SDS011;45330;51.634;5.562;2023-05-07T07:09:29;25.10;;;18.58;;
59512;SDS011;45330;51.634;5.562;2023-05-07T07:11:54;25.65;;;18.80;;
59512;SDS011;45330;51.634;5.562;2023-05-07T07:14:20;24.88;;;18.23;;
59512;SDS011;45330;51.634;5.562;2023-05-07T07:16:45;26.02;;;18.45;;
59512;SDS011;45330;51.634;5.562;2023-05-07T07:19:11;25.08;;;18.15;;
59512;SDS011;45330;51.634;5.562;2023-05-07T07:21:37;25.38;;;18.98;;
59512;SDS011;45330;51.634;5.562;2023-05-07T07:24:02;26.85;;;19.25;;
59512;SDS011;45330;51.634;5.562;2023-05-07T07:26:28;25.75;;;18.27;;
59512;SDS011;45330;51.634;5.562;2023-05-07T07:28:53;25.40;;;18.35;;
59512;SDS011;45330;51.634;5.562;2023-05-07T07:31:18;25.80;;;18.02;;
59512;SDS011;45330;51.634;5.562;2023-05-07T07:33:44;24.27;;;17.08;;
59512;SDS011;45330;51.634;5.562;2023-05-07T07:36:09;25.25;;;18.10;;
59512;SDS011;45330;51.634;5.562;2023-05-07T07:38:35;26.08;;;18.08;;
59512;SDS011;45330;51.634;5.562;2023-05-07T07:41:00;23.23;;;16.63;;
59512;SDS011;45330;51.634;5.562;2023-05-07T07:43:26;23.52;;;16.80;;
59512;SDS011;45330;51.634;5.562;2023-05-07T07:45:52;24.38;;;16.42;;
59512;SDS011;45330;51.634;5.562;2023-05-07T07:48:18;26.05;;;17.27;;
59512;SDS011;45330;51.634;5.562;2023-05-07T07:50:43;24.35;;;16.98;;
59512;SDS011;45330;51.634;5.562;2023-05-07T07:53:08;27.27;;;17.33;;
59512;SDS011;45330;51.634;5.562;2023-05-07T07:55:37;25.33;;;17.48;;
59512;SDS011;45330;51.634;5.562;2023-05-07T07:58:04;23.80;;;16.60;;
59512;SDS011;45330;51.634;5.562;2023-05-07T08:00:30;23.48;;;16.15;;
59512;SDS011;45330;51.634;5.562;2023-05-07T08:02:55;25.10;;;17.30;;
59512;SDS011;45330;51.634;5.562;2023-05-07T08:05:20;24.02;;;16.77;;
59512;SDS011;45330;51.634;5.562;2023-05-07T08:07:46;24.20;;;16.85;;
59512;SDS011;45330;51.634;5.562;2023-05-07T08:10:16;22.88;;;16.10;;
59512;SDS011;45330;51.634;5.562;2023-05-07T08:12:46;24.40;;;16.33;;
59512;SDS011;45330;51.634;5.562;2023-05-07T08:15:14;24.05;;;16.73;;
59512;SDS011;45330;51.634;5.562;2023-05-07T08:17:40;22.60;;;16.08;;
59512;SDS011;45330;51.634;5.562;2023-05-07T08:20:06;24.77;;;16.42;;
59512;SDS011;45330;51.634;5.562;2023-05-07T08:22:33;24.75;;;15.45;;
59512;SDS011;45330;51.634;5.562;2023-05-07T08:24:59;24.55;;;15.90;;
59512;SDS011;45330;51.634;5.562;2023-05-07T08:27:25;22.83;;;15.10;;
59512;SDS011;45330;51.634;5.562;2023-05-07T08:29:50;21.52;;;13.95;;
59512;SDS011;45330;51.634;5.562;2023-05-07T08:32:16;22.15;;;14.82;;
59512;SDS011;45330;51.634;5.562;2023-05-07T08:34:41;21.98;;;15.20;;
59512;SDS011;45330;51.634;5.562;2023-05-07T08:37:07;21.38;;;13.95;;
59512;SDS011;45330;51.634;5.562;2023-05-07T08:39:32;21.05;;;12.98;;
59512;SDS011;45330;51.634;5.562;2023-05-07T08:41:57;20.83;;;14.50;;
59512;SDS011;45330;51.634;5.562;2023-05-07T08:44:27;22.08;;;15.13;;
59512;SDS011;45330;51.634;5.562;2023-05-07T08:46:57;21.42;;;14.00;;
59512;SDS011;45330;51.634;5.562;2023-05-07T08:49:24;21.25;;;13.57;;
59512;SDS011;45330;51.634;5.562;2023-05-07T08:51:50;22.30;;;14.05;;
59512;SDS011;45330;51.634;5.562;2023-05-07T08:54:16;21.40;;;13.02;;
59512;SDS011;45330;51.634;5.562;2023-05-07T08:56:42;21.15;;;13.00;;
59512;SDS011;45330;51.634;5.562;2023-05-07T08:59:08;21.67;;;13.70;;
59512;SDS011;45330;51.634;5.562;2023-05-07T09:01:33;21.13;;;13.13;;
59512;SDS011;45330;51.634;5.562;2023-05-07T09:04:00;20.63;;;12.60;;
59512;SDS011;45330;51.634;5.562;2023-05-07T09:06:26;20.58;;;12.35;;
59512;SDS011;45330;51.634;5.562;2023-05-07T09:08:52;22.35;;;13.18;;
59512;SDS011;45330;51.634;5.562;2023-05-07T09:11:19;20.65;;;13.52;;
59512;SDS011;45330;51.634;5.562;2023-05-07T09:13:46;21.80;;;13.18;;
59512;SDS011;45330;51.634;5.562;2023-05-07T09:16:12;20.80;;;13.15;;
59512;SDS011;45330;51.634;5.562;2023-05-07T09:18:44;21.58;;;12.93;;
59512;SDS011;45330;51.634;5.562;2023-05-07T09:21:19;21.05;;;13.63;;
59512;SDS011;45330;51.634;5.562;2023-05-07T09:23:44;20.63;;;12.40;;
59512;SDS011;45330;51.634;5.562;2023-05-07T09:26:10;20.83;;;12.00;;
59512;SDS011;45330;51.634;5.562;2023-05-07T09:28:39;20.45;;;12.80;;
59512;SDS011;45330;51.634;5.562;2023-05-07T09:31:08;20.30;;;12.45;;
59512;SDS011;45330;51.634;5.562;2023-05-07T09:33:34;21.05;;;13.20;;
59512;SDS011;45330;51.634;5.562;2023-05-07T09:36:06;21.25;;;12.50;;
59512;SDS011;45330;51.634;5.562;2023-05-07T09:38:34;20.27;;;11.93;;
59512;SDS011;45330;51.634;5.562;2023-05-07T09:41:09;21.33;;;12.52;;
59512;SDS011;45330;51.634;5.562;2023-05-07T09:43:37;25.00;;;11.77;;
59512;SDS011;45330;51.634;5.562;2023-05-07T09:46:13;20.75;;;11.38;;
59512;SDS011;45330;51.634;5.562;2023-05-07T09:48:41;19.42;;;11.75;;
59512;SDS011;45330;51.634;5.562;2023-05-07T09:51:29;20.40;;;11.90;;
59512;SDS011;45330;51.634;5.562;2023-05-07T09:54:03;20.45;;;13.20;;
59512;SDS011;45330;51.634;5.562;2023-05-07T09:56:29;20.23;;;12.40;;
59512;SDS011;45330;51.634;5.562;2023-05-07T09:58:57;20.85;;;12.43;;
59512;SDS011;45330;51.634;5.562;2023-05-07T10:01:25;19.60;;;12.00;;
59512;SDS011;45330;51.634;5.562;2023-05-07T10:03:52;19.48;;;11.57;;
59512;SDS011;45330;51.634;5.562;2023-05-07T10:06:17;21.00;;;13.13;;
59512;SDS011;45330;51.634;5.562;2023-05-07T10:08:44;20.42;;;13.07;;
59512;SDS011;45330;51.634;5.562;2023-05-07T10:11:11;27.40;;;13.82;;
59512;SDS011;45330;51.634;5.562;2023-05-07T10:13:36;21.90;;;12.20;;
59512;SDS011;45330;51.634;5.562;2023-05-07T10:16:05;20.13;;;11.65;;
59512;SDS011;45330;51.634;5.562;2023-05-07T10:18:31;20.30;;;12.68;;
59512;SDS011;45330;51.634;5.562;2023-05-07T10:21:02;20.90;;;13.10;;
59512;SDS011;45330;51.634;5.562;2023-05-07T10:23:28;20.75;;;12.00;;
59512;SDS011;45330;51.634;5.562;2023-05-07T10:25:55;20.98;;;11.80;;
59512;SDS011;45330;51.634;5.562;2023-05-07T10:28:21;19.50;;;11.73;;
59512;SDS011;45330;51.634;5.562;2023-05-07T10:33:19;20.10;;;11.70;;
59512;SDS011;45330;51.634;5.562;2023-05-07T10:35:50;21.90;;;11.93;;
59512;SDS011;45330;51.634;5.562;2023-05-07T10:38:16;20.98;;;12.07;;
59512;SDS011;45330;51.634;5.562;2023-05-07T10:40:42;20.45;;;11.82;;
59512;SDS011;45330;51.634;5.562;2023-05-07T10:43:08;20.27;;;11.48;;
59512;SDS011;45330;51.634;5.562;2023-05-07T10:45:33;20.52;;;10.48;;
59512;SDS011;45330;51.634;5.562;2023-05-07T10:50:32;19.58;;;10.25;;
59512;SDS011;45330;51.634;5.562;2023-05-07T10:55:41;17.00;;;8.77;;
59512;SDS011;45330;51.634;5.562;2023-05-07T10:58:28;19.65;;;8.88;;
59512;SDS011;45330;51.634;5.562;2023-05-07T11:00:56;19.15;;;10.32;;
59512;SDS011;45330;51.634;5.562;2023-05-07T11:03:23;17.70;;;9.18;;
59512;SDS011;45330;51.634;5.562;2023-05-07T11:05:55;17.33;;;8.82;;
59512;SDS011;45330;51.634;5.562;2023-05-07T11:08:54;19.15;;;9.13;;
59512;SDS011;45330;51.634;5.562;2023-05-07T11:11:19;16.60;;;7.93;;
59512;SDS011;45330;51.634;5.562;2023-05-07T11:13:48;17.60;;;8.25;;
59512;SDS011;45330;51.634;5.562;2023-05-07T11:16:17;17.73;;;8.60;;
59512;SDS011;45330;51.634;5.562;2023-05-07T11:18:47;16.67;;;7.72;;
59512;SDS011;45330;51.634;5.562;2023-05-07T11:24:03;18.05;;;8.43;;
59512;SDS011;45330;51.634;5.562;2023-05-07T11:26:30;18.23;;;8.27;;
59512;SDS011;45330;51.634;5.562;2023-05-07T11:29:10;16.00;;;8.13;;
59512;SDS011;45330;51.634;5.562;2023-05-07T11:31:36;15.95;;;7.78;;
59512;SDS011;45330;51.634;5.562;2023-05-07T11:34:02;16.17;;;7.40;;
59512;SDS011;45330;51.634;5.562;2023-05-07T11:36:30;15.85;;;6.63;;
59512;SDS011;45330;51.634;5.562;2023-05-07T11:38:57;15.88;;;6.57;;
59512;SDS011;45330;51.634;5.562;2023-05-07T11:41:22;17.27;;;8.05;;
59512;SDS011;45330;51.634;5.562;2023-05-07T11:43:58;18.15;;;8.10;;
59512;SDS011;45330;51.634;5.562;2023-05-07T11:46:25;16.52;;;7.82;;
59512;SDS011;45330;51.634;5.562;2023-05-07T11:48:51;18.60;;;7.80;;
59512;SDS011;45330;51.634;5.562;2023-05-07T11:51:23;15.13;;;6.88;;
59512;SDS011;45330;51.634;5.562;2023-05-07T11:53:50;15.88;;;5.53;;
59512;SDS011;45330;51.634;5.562;2023-05-07T11:56:17;13.75;;;5.50;;
59512;SDS011;45330;51.634;5.562;2023-05-07T11:58:43;12.90;;;4.85;;
59512;SDS011;45330;51.634;5.562;2023-05-07T12:01:10;11.95;;;5.15;;
59512;SDS011;45330;51.634;5.562;2023-05-07T12:03:39;16.75;;;6.15;;
59512;SDS011;45330;51.634;5.562;2023-05-07T12:06:07;15.63;;;6.18;;
59512;SDS011;45330;51.634;5.562;2023-05-07T12:08:35;15.10;;;6.38;;
59512;SDS011;45330;51.634;5.562;2023-05-07T12:11:01;15.27;;;5.80;;
59512;SDS011;45330;51.634;5.562;2023-05-07T12:13:27;13.13;;;5.30;;
59512;SDS011;45330;51.634;5.562;2023-05-07T12:15:52;15.32;;;6.60;;
59512;SDS011;45330;51.634;5.562;2023-05-07T12:18:18;16.95;;;6.88;;
59512;SDS011;45330;51.634;5.562;2023-05-07T12:20:44;16.48;;;6.50;;
59512;SDS011;45330;51.634;5.562;2023-05-07T12:23:10;14.65;;;6.57;;
59512;SDS011;45330;51.634;5.562;2023-05-07T12:25:36;16.88;;;7.07;;
59512;SDS011;45330;51.634;5.562;2023-05-07T12:28:03;15.50;;;6.45;;
59512;SDS011;45330;51.634;5.562;2023-05-07T12:30:39;15.00;;;6.45;;
59512;SDS011;45330;51.634;5.562;2023-05-07T12:33:05;14.55;;;5.90;;
59512;SDS011;45330;51.634;5.562;2023-05-07T12:35:31;18.20;;;7.93;;
59512;SDS011;45330;51.634;5.562;2023-05-07T12:37:58;14.55;;;6.55;;
59512;SDS011;45330;51.634;5.562;2023-05-07T12:40:33;13.48;;;6.03;;
59512;SDS011;45330;51.634;5.562;2023-05-07T12:43:01;13.73;;;5.50;;
59512;SDS011;45330;51.634;5.562;2023-05-07T12:45:26;15.35;;;5.90;;
59512;SDS011;45330;51.634;5.562;2023-05-07T12:47:51;13.95;;;5.75;;
59512;SDS011;45330;51.634;5.562;2023-05-07T12:50:17;12.02;;;5.32;;
59512;SDS011;45330;51.634;5.562;2023-05-07T12:52:43;13.90;;;5.95;;
59512;SDS011;45330;51.634;5.562;2023-05-07T12:55:12;15.13;;;6.30;;
59512;SDS011;45330;51.634;5.562;2023-05-07T12:57:41;17.33;;;6.70;;
59512;SDS011;45330;51.634;5.562;2023-05-07T13:00:07;14.35;;;6.65;;
59512;SDS011;45330;51.634;5.562;2023-05-07T13:02:40;15.82;;;7.20;;
59512;SDS011;45330;51.634;5.562;2023-05-07T13:05:07;15.18;;;7.13;;
59512;SDS011;45330;51.634;5.562;2023-05-07T13:07:33;16.63;;;7.20;;
59512;SDS011;45330;51.634;5.562;2023-05-07T13:09:58;16.35;;;7.57;;
59512;SDS011;45330;51.634;5.562;2023-05-07T13:12:24;17.17;;;8.05;;
59512;SDS011;45330;51.634;5.562;2023-05-07T13:14:49;20.92;;;10.75;;
59512;SDS011;45330;51.634;5.562;2023-05-07T13:17:15;19.17;;;10.55;;
59512;SDS011;45330;51.634;5.562;2023-05-07T13:19:40;19.40;;;9.82;;
59512;SDS011;45330;51.634;5.562;2023-05-07T13:22:05;19.27;;;9.50;;
59512;SDS011;45330;51.634;5.562;2023-05-07T13:24:31;12.85;;;6.05;;
59512;SDS011;45330;51.634;5.562;2023-05-07T13:26:56;9.30;;;2.80;;
59512;SDS011;45330;51.634;5.562;2023-05-07T13:29:22;3.25;;;2.00;;
59512;SDS011;45330;51.634;5.562;2023-05-07T13:31:53;5.22;;;2.10;;
59512;SDS011;45330;51.634;5.562;2023-05-07T13:34:19;3.78;;;1.90;;
59512;SDS011;45330;51.634;5.562;2023-05-07T13:36:45;4.03;;;1.70;;
59512;SDS011;45330;51.634;5.562;2023-05-07T13:39:10;3.42;;;1.80;;
59512;SDS011;45330;51.634;5.562;2023-05-07T13:41:36;4.18;;;1.90;;
59512;SDS011;45330;51.634;5.562;2023-05-07T13:44:01;4.18;;;1.70;;
59512;SDS011;45330;51.634;5.562;2023-05-07T13:46:27;6.05;;;1.85;;
59512;SDS011;45330;51.634;5.562;2023-05-07T13:48:52;3.10;;;1.90;;
59512;SDS011;45330;51.634;5.562;2023-05-07T13:51:17;8.25;;;2.15;;
59512;SDS011;45330;51.634;5.562;2023-05-07T13:53:43;8.43;;;2.35;;
59512;SDS011;45330;51.634;5.562;2023-05-07T13:56:08;8.75;;;2.63;;
59512;SDS011;45330;51.634;5.562;2023-05-07T13:58:34;9.55;;;2.72;;
59512;SDS011;45330;51.634;5.562;2023-05-07T14:01:01;6.97;;;2.42;;
59512;SDS011;45330;51.634;5.562;2023-05-07T14:03:26;11.68;;;2.75;;
59512;SDS011;45330;51.634;5.562;2023-05-07T14:05:52;9.57;;;2.67;;
59512;SDS011;45330;51.634;5.562;2023-05-07T14:08:17;15.55;;;3.03;;
59512;SDS011;45330;51.634;5.562;2023-05-07T14:10:44;6.82;;;2.35;;
59512;SDS011;45330;51.634;5.562;2023-05-07T14:13:11;7.82;;;2.50;;
59512;SDS011;45330;51.634;5.562;2023-05-07T14:15:36;4.60;;;2.38;;
59512;SDS011;45330;51.634;5.562;2023-05-07T14:18:02;6.00;;;2.28;;
59512;SDS011;45330;51.634;5.562;2023-05-07T14:20:28;8.25;;;3.08;;
59512;SDS011;45330;51.634;5.562;2023-05-07T14:22:55;13.10;;;4.15;;
59512;SDS011;45330;51.634;5.562;2023-05-07T14:25:20;7.13;;;2.72;;
59512;SDS011;45330;51.634;5.562;2023-05-07T14:27:46;7.40;;;3.00;;
59512;SDS011;45330;51.634;5.562;2023-05-07T14:30:11;6.53;;;2.55;;
59512;SDS011;45330;51.634;5.562;2023-05-07T14:32:37;9.38;;;2.35;;